sensor_id;sensor_type;location;lat;lon;timestamp;pressure;altitude;pressure_sealevel;temperature;humidity
40592;BME280;26301;42.832;23.918;2022-07-06T00:00:56;93251.56;;;20.30;79.76
40592;BME280;26301;42.832;23.918;2022-07-06T00:03:23;93228.66;;;20.22;80.66
40592;BME280;26301;42.832;23.918;2022-07-06T00:05:49;93257.00;;;20.20;78.58
40592;BME280;26301;42.832;23.918;2022-07-06T00:08:15;93253.63;;;20.19;79.03
40592;BME280;26301;42.832;23.918;2022-07-06T00:10:41;93253.50;;;20.10;79.44
40592;BME280;26301;42.832;23.918;2022-07-06T00:13:07;93243.00;;;19.97;79.30
40592;BME280;26301;42.832;23.918;2022-07-06T00:15:33;93231.63;;;19.87;79.49
40592;BME280;26301;42.832;23.918;2022-07-06T00:18:00;93234.28;;;20.01;78.86
40592;BME280;26301;42.832;23.918;2022-07-06T00:20:26;93210.09;;;19.77;78.56
40592;BME280;26301;42.832;23.918;2022-07-06T00:22:52;93212.03;;;19.85;79.01
40592;BME280;26301;42.832;23.918;2022-07-06T00:25:19;93212.53;;;20.01;77.28
40592;BME280;26301;42.832;23.918;2022-07-06T00:27:45;93213.28;;;19.87;79.38
40592;BME280;26301;42.832;23.918;2022-07-06T00:30:11;93208.94;;;19.83;80.21
40592;BME280;26301;42.832;23.918;2022-07-06T00:32:37;93193.78;;;19.94;81.57
40592;BME280;26301;42.832;23.918;2022-07-06T00:35:04;93190.75;;;20.00;81.57
40592;BME280;26301;42.832;23.918;2022-07-06T00:37:30;93181.06;;;19.87;81.88
40592;BME280;26301;42.832;23.918;2022-07-06T00:39:56;93175.06;;;19.86;82.99
40592;BME280;26301;42.832;23.918;2022-07-06T00:42:23;93168.94;;;19.77;81.73
40592;BME280;26301;42.832;23.918;2022-07-06T00:44:50;93167.78;;;19.83;81.88
40592;BME280;26301;42.832;23.918;2022-07-06T00:47:16;93156.03;;;19.81;82.18
40592;BME280;26301;42.832;23.918;2022-07-06T00:49:42;93133.50;;;19.66;83.76
40592;BME280;26301;42.832;23.918;2022-07-06T00:52:28;93117.78;;;19.66;83.93
40592;BME280;26301;42.832;23.918;2022-07-06T00:54:54;93122.72;;;19.81;83.87
40592;BME280;26301;42.832;23.918;2022-07-06T00:57:21;93115.72;;;19.91;84.62
40592;BME280;26301;42.832;23.918;2022-07-06T00:59:47;93090.78;;;19.79;83.70
40592;BME280;26301;42.832;23.918;2022-07-06T01:02:14;93106.81;;;19.92;84.56
40592;BME280;26301;42.832;23.918;2022-07-06T01:04:41;93109.22;;;20.02;85.01
40592;BME280;26301;42.832;23.918;2022-07-06T01:07:06;93112.94;;;19.87;84.79
40592;BME280;26301;42.832;23.918;2022-07-06T01:09:33;93133.88;;;19.59;85.47
40592;BME280;26301;42.832;23.918;2022-07-06T01:12:00;93140.31;;;19.21;88.21
40592;BME280;26301;42.832;23.918;2022-07-06T01:14:26;93138.47;;;18.88;90.66
40592;BME280;26301;42.832;23.918;2022-07-06T01:16:52;93138.16;;;18.76;90.90
40592;BME280;26301;42.832;23.918;2022-07-06T01:19:19;93139.06;;;18.66;90.34
40592;BME280;26301;42.832;23.918;2022-07-06T01:21:45;93121.75;;;18.51;90.89
40592;BME280;26301;42.832;23.918;2022-07-06T01:24:11;93123.78;;;18.55;90.45
40592;BME280;26301;42.832;23.918;2022-07-06T01:26:37;93118.56;;;18.55;90.95
40592;BME280;26301;42.832;23.918;2022-07-06T01:29:03;93060.94;;;18.08;91.78
40592;BME280;26301;42.832;23.918;2022-07-06T01:31:30;93121.75;;;18.51;91.41
40592;BME280;26301;42.832;23.918;2022-07-06T01:33:57;93109.41;;;18.38;92.64
40592;BME280;26301;42.832;23.918;2022-07-06T01:36:23;93119.22;;;18.27;92.56
40592;BME280;26301;42.832;23.918;2022-07-06T01:38:53;93125.72;;;18.30;92.36
40592;BME280;26301;42.832;23.918;2022-07-06T01:41:21;93111.44;;;18.22;92.73
40592;BME280;26301;42.832;23.918;2022-07-06T01:43:47;93121.97;;;18.36;92.78
40592;BME280;26301;42.832;23.918;2022-07-06T01:46:14;93113.56;;;18.39;92.79
40592;BME280;26301;42.832;23.918;2022-07-06T01:48:41;93118.84;;;18.53;92.34
40592;BME280;26301;42.832;23.918;2022-07-06T01:51:08;93105.09;;;18.47;91.69
40592;BME280;26301;42.832;23.918;2022-07-06T01:53:34;93104.41;;;18.56;90.69
40592;BME280;26301;42.832;23.918;2022-07-06T01:56:01;93126.13;;;18.75;90.68
40592;BME280;26301;42.832;23.918;2022-07-06T01:58:27;93116.44;;;18.57;89.49
40592;BME280;26301;42.832;23.918;2022-07-06T02:00:55;93117.28;;;18.52;89.27
40592;BME280;26301;42.832;23.918;2022-07-06T02:03:21;93109.88;;;18.40;90.74
40592;BME280;26301;42.832;23.918;2022-07-06T02:05:47;93109.47;;;18.33;90.80
40592;BME280;26301;42.832;23.918;2022-07-06T02:08:14;93120.41;;;18.16;91.78
40592;BME280;26301;42.832;23.918;2022-07-06T02:10:40;93132.56;;;18.26;91.87
40592;BME280;26301;42.832;23.918;2022-07-06T02:13:07;93140.63;;;18.30;91.61
40592;BME280;26301;42.832;23.918;2022-07-06T02:15:33;93125.28;;;18.23;91.12
40592;BME280;26301;42.832;23.918;2022-07-06T02:17:59;93135.31;;;18.16;92.04
40592;BME280;26301;42.832;23.918;2022-07-06T02:20:25;93132.44;;;18.17;91.42
40592;BME280;26301;42.832;23.918;2022-07-06T02:22:51;93163.50;;;18.38;90.81
40592;BME280;26301;42.832;23.918;2022-07-06T02:25:18;93164.53;;;18.42;89.89
40592;BME280;26301;42.832;23.918;2022-07-06T02:27:44;93171.72;;;18.50;89.61
40592;BME280;26301;42.832;23.918;2022-07-06T02:30:10;93157.72;;;18.41;88.39
40592;BME280;26301;42.832;23.918;2022-07-06T02:32:36;93187.63;;;18.54;89.05
40592;BME280;26301;42.832;23.918;2022-07-06T02:35:05;93203.25;;;18.59;89.43
40592;BME280;26301;42.832;23.918;2022-07-06T02:37:31;93200.88;;;18.62;88.94
40592;BME280;26301;42.832;23.918;2022-07-06T02:39:58;93198.66;;;18.69;88.80
40592;BME280;26301;42.832;23.918;2022-07-06T02:42:24;93198.72;;;18.64;89.08
40592;BME280;26301;42.832;23.918;2022-07-06T02:44:52;93182.63;;;18.57;89.17
40592;BME280;26301;42.832;23.918;2022-07-06T02:47:18;93176.16;;;18.49;89.54
40592;BME280;26301;42.832;23.918;2022-07-06T02:49:45;93201.06;;;18.66;89.22
40592;BME280;26301;42.832;23.918;2022-07-06T02:52:11;93189.03;;;18.46;88.61
40592;BME280;26301;42.832;23.918;2022-07-06T02:54:38;93207.19;;;18.56;88.45
40592;BME280;26301;42.832;23.918;2022-07-06T02:57:04;93208.47;;;18.59;88.39
40592;BME280;26301;42.832;23.918;2022-07-06T02:59:30;93205.66;;;18.55;88.85
40592;BME280;26301;42.832;23.918;2022-07-06T03:01:56;93222.69;;;18.52;88.36
40592;BME280;26301;42.832;23.918;2022-07-06T03:04:22;93204.22;;;18.25;90.33
40592;BME280;26301;42.832;23.918;2022-07-06T03:06:48;93202.22;;;18.17;90.57
40592;BME280;26301;42.832;23.918;2022-07-06T03:09:14;93217.06;;;18.21;91.37
40592;BME280;26301;42.832;23.918;2022-07-06T03:11:41;93217.41;;;18.15;91.96
40592;BME280;26301;42.832;23.918;2022-07-06T03:14:07;93225.25;;;18.15;92.10
40592;BME280;26301;42.832;23.918;2022-07-06T03:16:33;93219.09;;;18.05;93.22
40592;BME280;26301;42.832;23.918;2022-07-06T03:19:00;93222.00;;;17.99;92.76
40592;BME280;26301;42.832;23.918;2022-07-06T03:21:26;93232.41;;;18.04;93.53
40592;BME280;26301;42.832;23.918;2022-07-06T03:23:52;93235.19;;;18.13;93.60
40592;BME280;26301;42.832;23.918;2022-07-06T03:26:19;93229.16;;;18.17;93.31
40592;BME280;26301;42.832;23.918;2022-07-06T03:28:45;93221.06;;;18.14;92.96
40592;BME280;26301;42.832;23.918;2022-07-06T03:31:12;93251.72;;;18.32;92.78
40592;BME280;26301;42.832;23.918;2022-07-06T03:33:39;93229.91;;;18.18;93.22
40592;BME280;26301;42.832;23.918;2022-07-06T03:36:05;93246.53;;;18.27;92.87
40592;BME280;26301;42.832;23.918;2022-07-06T03:38:33;93256.38;;;18.35;92.01
40592;BME280;26301;42.832;23.918;2022-07-06T03:41:00;93249.09;;;18.32;91.49
40592;BME280;26301;42.832;23.918;2022-07-06T03:43:27;93254.34;;;18.32;92.62
40592;BME280;26301;42.832;23.918;2022-07-06T03:45:52;93233.34;;;18.37;91.01
40592;BME280;26301;42.832;23.918;2022-07-06T03:48:20;93248.63;;;18.49;91.49
40592;BME280;26301;42.832;23.918;2022-07-06T03:50:46;93246.34;;;18.42;91.30
40592;BME280;26301;42.832;23.918;2022-07-06T03:53:12;93247.56;;;18.50;91.35
40592;BME280;26301;42.832;23.918;2022-07-06T03:55:39;93243.38;;;18.49;90.72
40592;BME280;26301;42.832;23.918;2022-07-06T03:58:05;93254.72;;;18.63;90.88
40592;BME280;26301;42.832;23.918;2022-07-06T04:00:31;93246.25;;;18.71;90.15
40592;BME280;26301;42.832;23.918;2022-07-06T04:03:00;93236.22;;;18.79;89.77
40592;BME280;26301;42.832;23.918;2022-07-06T04:05:26;93223.97;;;18.74;89.87
40592;BME280;26301;42.832;23.918;2022-07-06T04:07:52;93236.31;;;18.92;90.34
40592;BME280;26301;42.832;23.918;2022-07-06T04:10:18;93238.25;;;19.01;91.01
40592;BME280;26301;42.832;23.918;2022-07-06T04:12:45;93237.13;;;19.07;93.23
40592;BME280;26301;42.832;23.918;2022-07-06T04:15:12;93241.09;;;19.04;93.74
40592;BME280;26301;42.832;23.918;2022-07-06T04:17:38;93242.28;;;19.12;93.97
40592;BME280;26301;42.832;23.918;2022-07-06T04:20:24;93252.13;;;19.20;93.32
40592;BME280;26301;42.832;23.918;2022-07-06T04:22:53;93238.41;;;19.09;93.17
40592;BME280;26301;42.832;23.918;2022-07-06T04:25:28;93243.63;;;19.09;93.30
40592;BME280;26301;42.832;23.918;2022-07-06T04:27:54;93237.69;;;19.04;92.84
40592;BME280;26301;42.832;23.918;2022-07-06T04:30:21;93249.06;;;19.13;93.28
40592;BME280;26301;42.832;23.918;2022-07-06T04:32:46;93200.38;;;18.79;93.56
40592;BME280;26301;42.832;23.918;2022-07-06T04:35:13;93248.66;;;19.06;93.38
40592;BME280;26301;42.832;23.918;2022-07-06T04:37:40;93263.00;;;19.27;91.95
40592;BME280;26301;42.832;23.918;2022-07-06T04:40:06;93259.69;;;19.22;92.29
40592;BME280;26301;42.832;23.918;2022-07-06T04:42:32;93269.50;;;19.30;92.38
40592;BME280;26301;42.832;23.918;2022-07-06T04:44:59;93269.22;;;19.31;92.26
40592;BME280;26301;42.832;23.918;2022-07-06T04:47:25;93265.81;;;19.31;92.34
40592;BME280;26301;42.832;23.918;2022-07-06T04:49:51;93249.72;;;19.24;91.58
40592;BME280;26301;42.832;23.918;2022-07-06T04:52:17;93267.59;;;19.35;91.68
40592;BME280;26301;42.832;23.918;2022-07-06T04:54:45;93269.84;;;19.42;90.88
40592;BME280;26301;42.832;23.918;2022-07-06T04:57:11;93268.69;;;19.48;90.92
40592;BME280;26301;42.832;23.918;2022-07-06T04:59:38;93262.50;;;19.44;90.87
40592;BME280;26301;42.832;23.918;2022-07-06T05:02:04;93264.81;;;19.46;90.43
40592;BME280;26301;42.832;23.918;2022-07-06T05:04:30;93268.13;;;19.51;90.67
40592;BME280;26301;42.832;23.918;2022-07-06T05:06:56;93259.00;;;19.49;90.49
40592;BME280;26301;42.832;23.918;2022-07-06T05:09:22;93269.59;;;19.57;90.33
40592;BME280;26301;42.832;23.918;2022-07-06T05:11:49;93260.00;;;19.53;89.73
40592;BME280;26301;42.832;23.918;2022-07-06T05:14:15;93282.56;;;19.68;89.56
40592;BME280;26301;42.832;23.918;2022-07-06T05:16:41;93280.94;;;19.72;88.84
40592;BME280;26301;42.832;23.918;2022-07-06T05:19:07;93273.88;;;19.53;89.72
40592;BME280;26301;42.832;23.918;2022-07-06T05:21:33;93293.84;;;19.68;89.67
40592;BME280;26301;42.832;23.918;2022-07-06T05:23:59;93272.41;;;19.61;89.09
40592;BME280;26301;42.832;23.918;2022-07-06T05:26:26;93285.59;;;19.75;88.97
40592;BME280;26301;42.832;23.918;2022-07-06T05:28:52;93271.13;;;19.77;89.16
40592;BME280;26301;42.832;23.918;2022-07-06T05:31:18;93295.03;;;20.03;88.22
40592;BME280;26301;42.832;23.918;2022-07-06T05:33:45;93290.59;;;20.04;87.66
40592;BME280;26301;42.832;23.918;2022-07-06T05:36:11;93281.34;;;20.06;87.63
40592;BME280;26301;42.832;23.918;2022-07-06T05:38:38;93292.53;;;20.40;86.53
40592;BME280;26301;42.832;23.918;2022-07-06T05:41:04;93285.66;;;20.58;82.01
40592;BME280;26301;42.832;23.918;2022-07-06T05:43:31;93291.22;;;20.56;82.28
40592;BME280;26301;42.832;23.918;2022-07-06T05:45:57;93287.88;;;20.50;82.19
40592;BME280;26301;42.832;23.918;2022-07-06T05:48:23;93287.38;;;20.48;82.27
40592;BME280;26301;42.832;23.918;2022-07-06T05:51:08;93280.78;;;20.51;79.19
40592;BME280;26301;42.832;23.918;2022-07-06T05:53:34;93301.50;;;20.66;81.11
40592;BME280;26301;42.832;23.918;2022-07-06T05:56:00;93307.72;;;20.70;81.17
40592;BME280;26301;42.832;23.918;2022-07-06T05:58:26;93304.72;;;20.77;80.15
40592;BME280;26301;42.832;23.918;2022-07-06T06:00:52;93289.38;;;20.70;79.76
40592;BME280;26301;42.832;23.918;2022-07-06T06:03:19;93284.88;;;20.71;76.77
40592;BME280;26301;42.832;23.918;2022-07-06T06:05:45;93308.69;;;20.88;76.58
40592;BME280;26301;42.832;23.918;2022-07-06T06:08:12;93309.38;;;20.80;77.41
40592;BME280;26301;42.832;23.918;2022-07-06T06:10:38;93288.97;;;20.63;78.89
40592;BME280;26301;42.832;23.918;2022-07-06T06:13:05;93251.38;;;20.54;78.90
40592;BME280;26301;42.832;23.918;2022-07-06T06:15:32;93296.06;;;20.76;79.63
40592;BME280;26301;42.832;23.918;2022-07-06T06:17:58;93286.75;;;20.70;78.99
40592;BME280;26301;42.832;23.918;2022-07-06T06:20:24;93280.72;;;20.70;78.17
40592;BME280;26301;42.832;23.918;2022-07-06T06:25:20;93289.53;;;20.74;78.40
40592;BME280;26301;42.832;23.918;2022-07-06T06:27:46;93297.19;;;20.84;77.64
40592;BME280;26301;42.832;23.918;2022-07-06T06:30:13;93283.63;;;20.68;77.99
40592;BME280;26301;42.832;23.918;2022-07-06T06:32:40;93293.91;;;20.78;79.07
40592;BME280;26301;42.832;23.918;2022-07-06T06:35:08;93301.28;;;20.90;78.97
40592;BME280;26301;42.832;23.918;2022-07-06T06:37:34;93301.16;;;20.95;78.27
40592;BME280;26301;42.832;23.918;2022-07-06T06:40:04;93303.88;;;21.04;77.62
40592;BME280;26301;42.832;23.918;2022-07-06T06:42:31;93271.69;;;20.98;76.23
40592;BME280;26301;42.832;23.918;2022-07-06T06:44:57;93281.84;;;20.91;75.59
40592;BME280;26301;42.832;23.918;2022-07-06T06:47:23;93283.66;;;21.05;77.00
40592;BME280;26301;42.832;23.918;2022-07-06T06:49:50;93282.63;;;21.14;76.08
40592;BME280;26301;42.832;23.918;2022-07-06T06:52:16;93286.00;;;21.29;76.48
40592;BME280;26301;42.832;23.918;2022-07-06T06:54:43;93268.69;;;21.28;75.00
40592;BME280;26301;42.832;23.918;2022-07-06T06:57:09;93285.31;;;21.59;72.84
40592;BME280;26301;42.832;23.918;2022-07-06T06:59:35;93263.63;;;21.54;73.67
40592;BME280;26301;42.832;23.918;2022-07-06T07:02:02;93275.28;;;21.92;74.14
40592;BME280;26301;42.832;23.918;2022-07-06T07:04:29;93276.31;;;22.05;72.80
40592;BME280;26301;42.832;23.918;2022-07-06T07:06:56;93268.50;;;22.23;74.13
40592;BME280;26301;42.832;23.918;2022-07-06T07:09:23;93280.00;;;22.44;71.12
40592;BME280;26301;42.832;23.918;2022-07-06T07:11:49;93285.50;;;22.65;70.26
40592;BME280;26301;42.832;23.918;2022-07-06T07:14:15;93282.72;;;22.70;70.52
40592;BME280;26301;42.832;23.918;2022-07-06T07:16:41;93269.09;;;22.68;69.46
40592;BME280;26301;42.832;23.918;2022-07-06T07:19:08;93235.63;;;22.51;68.20
40592;BME280;26301;42.832;23.918;2022-07-06T07:21:34;93282.13;;;22.82;66.21
40592;BME280;26301;42.832;23.918;2022-07-06T07:24:00;93281.00;;;22.74;71.54
40592;BME280;26301;42.832;23.918;2022-07-06T07:26:26;93272.97;;;22.71;68.17
40592;BME280;26301;42.832;23.918;2022-07-06T07:28:52;93292.34;;;22.92;69.66
40592;BME280;26301;42.832;23.918;2022-07-06T07:31:20;93286.03;;;22.93;65.56
40592;BME280;26301;42.832;23.918;2022-07-06T07:33:47;93291.59;;;22.92;67.21
40592;BME280;26301;42.832;23.918;2022-07-06T07:36:13;93284.78;;;22.91;67.82
40592;BME280;26301;42.832;23.918;2022-07-06T07:38:39;93267.41;;;22.72;68.39
40592;BME280;26301;42.832;23.918;2022-07-06T07:41:06;93289.28;;;22.90;67.75
40592;BME280;26301;42.832;23.918;2022-07-06T07:43:32;93288.38;;;23.03;65.55
40592;BME280;26301;42.832;23.918;2022-07-06T07:45:59;93287.59;;;23.03;65.83
40592;BME280;26301;42.832;23.918;2022-07-06T07:48:25;93278.78;;;22.99;65.70
40592;BME280;26301;42.832;23.918;2022-07-06T07:50:51;93283.44;;;23.11;66.39
40592;BME280;26301;42.832;23.918;2022-07-06T07:53:18;93285.91;;;23.24;66.39
40592;BME280;26301;42.832;23.918;2022-07-06T07:55:44;93285.63;;;23.26;66.10
40592;BME280;26301;42.832;23.918;2022-07-06T07:58:10;93284.53;;;23.27;66.99
40592;BME280;26301;42.832;23.918;2022-07-06T08:00:36;93285.63;;;23.35;63.87
40592;BME280;26301;42.832;23.918;2022-07-06T08:03:03;93288.69;;;23.37;64.20
40592;BME280;26301;42.832;23.918;2022-07-06T08:05:29;93273.22;;;23.26;62.78
40592;BME280;26301;42.832;23.918;2022-07-06T08:07:55;93279.09;;;23.23;63.69
40592;BME280;26301;42.832;23.918;2022-07-06T08:10:21;93272.44;;;23.09;64.23
40592;BME280;26301;42.832;23.918;2022-07-06T08:12:48;93291.94;;;23.16;65.94
40592;BME280;26301;42.832;23.918;2022-07-06T08:15:14;93282.81;;;23.14;65.71
40592;BME280;26301;42.832;23.918;2022-07-06T08:17:40;93281.25;;;23.13;66.21
40592;BME280;26301;42.832;23.918;2022-07-06T08:20:08;93273.97;;;23.18;66.09
40592;BME280;26301;42.832;23.918;2022-07-06T08:22:37;93291.94;;;23.25;65.09
40592;BME280;26301;42.832;23.918;2022-07-06T08:25:04;93289.94;;;23.31;66.45
40592;BME280;26301;42.832;23.918;2022-07-06T08:27:31;93291.81;;;23.30;65.42
40592;BME280;26301;42.832;23.918;2022-07-06T08:29:57;93292.44;;;23.27;65.19
40592;BME280;26301;42.832;23.918;2022-07-06T08:32:26;93287.13;;;23.10;66.44
40592;BME280;26301;42.832;23.918;2022-07-06T08:34:51;93296.28;;;23.12;64.39
40592;BME280;26301;42.832;23.918;2022-07-06T08:37:18;93289.94;;;22.96;64.93
40592;BME280;26301;42.832;23.918;2022-07-06T08:39:45;93292.53;;;22.87;66.25
40592;BME280;26301;42.832;23.918;2022-07-06T08:42:12;93278.09;;;22.76;65.78
40592;BME280;26301;42.832;23.918;2022-07-06T08:44:40;93288.78;;;22.79;67.63
40592;BME280;26301;42.832;23.918;2022-07-06T08:47:30;93285.91;;;23.07;67.86
40592;BME280;26301;42.832;23.918;2022-07-06T08:49:57;93282.03;;;23.04;69.28
40592;BME280;26301;42.832;23.918;2022-07-06T08:52:24;93305.75;;;23.22;67.10
40592;BME280;26301;42.832;23.918;2022-07-06T08:54:50;93298.16;;;23.20;69.36
40592;BME280;26301;42.832;23.918;2022-07-06T08:57:17;93301.09;;;23.27;67.01
40592;BME280;26301;42.832;23.918;2022-07-06T08:59:46;93304.69;;;23.32;65.84
40592;BME280;26301;42.832;23.918;2022-07-06T09:02:13;93300.47;;;23.48;65.99
40592;BME280;26301;42.832;23.918;2022-07-06T09:04:42;93284.81;;;23.51;65.11
40592;BME280;26301;42.832;23.918;2022-07-06T09:07:09;93289.00;;;23.52;65.34
40592;BME280;26301;42.832;23.918;2022-07-06T09:09:37;93306.38;;;23.71;63.90
40592;BME280;26301;42.832;23.918;2022-07-06T09:12:04;93287.59;;;23.72;63.37
40592;BME280;26301;42.832;23.918;2022-07-06T09:14:29;93301.06;;;23.88;62.65
40592;BME280;26301;42.832;23.918;2022-07-06T09:17:05;93299.97;;;23.98;61.76
40592;BME280;26301;42.832;23.918;2022-07-06T09:19:32;93304.28;;;24.03;62.22
40592;BME280;26301;42.832;23.918;2022-07-06T09:22:00;93301.50;;;23.99;61.61
40592;BME280;26301;42.832;23.918;2022-07-06T09:24:26;93249.59;;;23.73;61.53
40592;BME280;26301;42.832;23.918;2022-07-06T09:26:58;93294.50;;;24.12;61.20
40592;BME280;26301;42.832;23.918;2022-07-06T09:29:31;93294.06;;;24.10;62.19
40592;BME280;26301;42.832;23.918;2022-07-06T09:32:02;93237.34;;;23.78;62.96
40592;BME280;26301;42.832;23.918;2022-07-06T09:34:45;93296.06;;;24.13;61.02
40592;BME280;26301;42.832;23.918;2022-07-06T09:37:13;93299.44;;;24.22;61.01
40592;BME280;26301;42.832;23.918;2022-07-06T09:39:40;93285.56;;;24.34;60.15
40592;BME280;26301;42.832;23.918;2022-07-06T09:42:06;93296.38;;;24.58;59.00
40592;BME280;26301;42.832;23.918;2022-07-06T09:44:38;93279.13;;;24.61;58.33
40592;BME280;26301;42.832;23.918;2022-07-06T09:47:11;93280.41;;;24.76;56.94
40592;BME280;26301;42.832;23.918;2022-07-06T09:49:40;93241.28;;;24.39;57.79
40592;BME280;26301;42.832;23.918;2022-07-06T09:52:08;93286.84;;;24.66;56.49
40592;BME280;26301;42.832;23.918;2022-07-06T09:54:34;93272.78;;;24.53;56.15
40592;BME280;26301;42.832;23.918;2022-07-06T09:57:01;93277.78;;;24.46;59.75
40592;BME280;26301;42.832;23.918;2022-07-06T09:59:30;93269.72;;;24.42;57.72
40592;BME280;26301;42.832;23.918;2022-07-06T10:01:58;93270.66;;;24.38;59.39
40592;BME280;26301;42.832;23.918;2022-07-06T10:04:28;93240.47;;;24.09;59.56
40592;BME280;26301;42.832;23.918;2022-07-06T10:06:56;93279.88;;;24.23;58.78
40592;BME280;26301;42.832;23.918;2022-07-06T10:09:25;93292.16;;;24.19;59.18
40592;BME280;26301;42.832;23.918;2022-07-06T10:14:31;93280.13;;;23.92;60.54
40592;BME280;26301;42.832;23.918;2022-07-06T10:16:59;93282.47;;;23.76;61.62
40592;BME280;26301;42.832;23.918;2022-07-06T10:19:29;93288.53;;;23.50;61.45
40592;BME280;26301;42.832;23.918;2022-07-06T10:21:57;93269.19;;;23.38;63.39
40592;BME280;26301;42.832;23.918;2022-07-06T10:24:24;93258.47;;;23.25;62.78
40592;BME280;26301;42.832;23.918;2022-07-06T10:26:52;93280.94;;;23.49;64.38
40592;BME280;26301;42.832;23.918;2022-07-06T10:29:19;93261.25;;;23.46;66.08
40592;BME280;26301;42.832;23.918;2022-07-06T10:31:48;93272.41;;;23.43;66.25
40592;BME280;26301;42.832;23.918;2022-07-06T10:34:18;93260.31;;;23.25;68.83
40592;BME280;26301;42.832;23.918;2022-07-06T10:36:50;93284.81;;;23.43;67.77
40592;BME280;26301;42.832;23.918;2022-07-06T10:39:35;93271.34;;;23.36;70.13
40592;BME280;26301;42.832;23.918;2022-07-06T10:42:41;93284.50;;;23.62;67.11
40592;BME280;26301;42.832;23.918;2022-07-06T10:45:10;93269.13;;;23.64;64.39
40592;BME280;26301;42.832;23.918;2022-07-06T10:47:36;93285.88;;;23.85;64.29
40592;BME280;26301;42.832;23.918;2022-07-06T10:50:04;93281.53;;;23.89;64.07
40592;BME280;26301;42.832;23.918;2022-07-06T10:52:51;93280.38;;;24.08;62.13
40592;BME280;26301;42.832;23.918;2022-07-06T10:55:37;93271.03;;;24.19;61.43
40592;BME280;26301;42.832;23.918;2022-07-06T10:58:05;93272.13;;;24.18;61.84
40592;BME280;26301;42.832;23.918;2022-07-06T11:00:52;93289.69;;;24.14;60.49
40592;BME280;26301;42.832;23.918;2022-07-06T11:03:38;93281.44;;;24.15;61.49
40592;BME280;26301;42.832;23.918;2022-07-06T11:11:19;93270.38;;;23.84;62.10
40592;BME280;26301;42.832;23.918;2022-07-06T11:14:04;93287.59;;;23.72;63.70
40592;BME280;26301;42.832;23.918;2022-07-06T11:16:33;93290.56;;;23.62;63.93
40592;BME280;26301;42.832;23.918;2022-07-06T11:19:15;93288.22;;;23.61;64.08
40592;BME280;26301;42.832;23.918;2022-07-06T11:21:57;93265.31;;;23.44;63.87
40592;BME280;26301;42.832;23.918;2022-07-06T11:24:31;93281.56;;;23.46;64.78
40592;BME280;26301;42.832;23.918;2022-07-06T11:26:58;93284.19;;;23.37;66.02
40592;BME280;26301;42.832;23.918;2022-07-06T11:29:27;93286.53;;;23.30;65.31
40592;BME280;26301;42.832;23.918;2022-07-06T11:31:58;93268.97;;;22.91;65.03
40592;BME280;26301;42.832;23.918;2022-07-06T11:34:33;93281.22;;;22.87;64.72
40592;BME280;26301;42.832;23.918;2022-07-06T11:37:04;93265.66;;;22.59;62.81
40592;BME280;26301;42.832;23.918;2022-07-06T11:39:32;93275.94;;;22.78;61.84
40592;BME280;26301;42.832;23.918;2022-07-06T11:41:59;93282.50;;;23.07;62.77
40592;BME280;26301;42.832;23.918;2022-07-06T11:44:26;93260.50;;;23.02;62.34
40592;BME280;26301;42.832;23.918;2022-07-06T11:46:53;93263.44;;;23.18;63.53
40592;BME280;26301;42.832;23.918;2022-07-06T11:49:22;93265.75;;;23.37;63.37
40592;BME280;26301;42.832;23.918;2022-07-06T11:51:49;93276.28;;;23.55;60.25
40592;BME280;26301;42.832;23.918;2022-07-06T11:54:17;93265.72;;;23.63;60.04
40592;BME280;26301;42.832;23.918;2022-07-06T11:59:22;93268.34;;;23.89;59.77
40592;BME280;26301;42.832;23.918;2022-07-06T12:01:48;93265.06;;;23.92;60.87
40592;BME280;26301;42.832;23.918;2022-07-06T12:04:14;93264.69;;;24.11;58.02
40592;BME280;26301;42.832;23.918;2022-07-06T12:06:40;93259.84;;;24.22;59.82
40592;BME280;26301;42.832;23.918;2022-07-06T12:09:10;93243.84;;;24.18;61.36
40592;BME280;26301;42.832;23.918;2022-07-06T12:11:36;93267.28;;;24.29;60.68
40592;BME280;26301;42.832;23.918;2022-07-06T12:14:13;93247.94;;;24.16;59.35
40592;BME280;26301;42.832;23.918;2022-07-06T12:16:40;93253.47;;;24.23;59.95
40592;BME280;26301;42.832;23.918;2022-07-06T12:19:06;93259.84;;;24.22;59.55
40592;BME280;26301;42.832;23.918;2022-07-06T12:21:45;93261.41;;;24.23;58.67
40592;BME280;26301;42.832;23.918;2022-07-06T12:24:21;93260.59;;;24.31;57.87
40592;BME280;26301;42.832;23.918;2022-07-06T12:26:48;93209.13;;;24.16;60.40
40592;BME280;26301;42.832;23.918;2022-07-06T12:29:15;93246.00;;;24.63;57.43
40592;BME280;26301;42.832;23.918;2022-07-06T12:34:25;93227.03;;;24.70;60.05
40592;BME280;26301;42.832;23.918;2022-07-06T12:37:06;93240.63;;;25.02;59.94
40592;BME280;26301;42.832;23.918;2022-07-06T12:39:44;93228.81;;;24.99;60.90
40592;BME280;26301;42.832;23.918;2022-07-06T12:42:10;93230.19;;;25.05;58.71
40592;BME280;26301;42.832;23.918;2022-07-06T12:44:44;93231.97;;;24.93;59.03
40592;BME280;26301;42.832;23.918;2022-07-06T12:47:11;93229.69;;;24.91;58.82
40592;BME280;26301;42.832;23.918;2022-07-06T12:49:38;93230.63;;;24.86;58.67
40592;BME280;26301;42.832;23.918;2022-07-06T12:54:35;93231.41;;;24.87;59.64
40592;BME280;26301;42.832;23.918;2022-07-06T12:57:12;93235.72;;;24.71;60.39
40592;BME280;26301;42.832;23.918;2022-07-06T12:59:42;93232.63;;;24.69;59.91
40592;BME280;26301;42.832;23.918;2022-07-06T13:02:20;93231.16;;;24.80;61.20
40592;BME280;26301;42.832;23.918;2022-07-06T13:05:07;93218.63;;;24.68;58.69
40592;BME280;26301;42.832;23.918;2022-07-06T13:07:37;93216.47;;;24.70;59.66
40592;BME280;26301;42.832;23.918;2022-07-06T13:10:08;93223.34;;;24.62;59.42
40592;BME280;26301;42.832;23.918;2022-07-06T13:12:35;93220.69;;;24.62;60.46